Time;durP1;ratioP1;P1;durP2;ratioP2;P2;SDS_P1;SDS_P2;PMS_P1;PMS_P2;Temp;Humidity;BMP_temperature;BMP_pressure;BME280_temperature;BME280_humidity;BME280_pressure;Samples;Min_cycle;Max_cycle;Signal;HPM_P1;HPM_P2
2022/11/19 00:00:46;;;;;;;10.48;7.72;;;16.20;96.20;;;;;;5052103;28;20458;-71
2022/11/19 00:03:16;;;;;;;11.45;7.45;;;16.20;96.30;;;;;;5053037;28;20036;-71
2022/11/19 00:05:44;;;;;;;11.75;7.75;;;16.10;96.30;;;;;;5052743;28;20503;-71
2022/11/19 00:08:12;;;;;;;15.82;8.00;;;16.20;96.00;;;;;;5048330;28;20131;-71
2022/11/19 00:10:39;;;;;;;12.48;7.72;;;16.20;96.10;;;;;;5050615;28;20436;-71
2022/11/19 00:13:06;;;;;;;12.88;7.53;;;16.10;96.10;;;;;;5052109;28;20056;-72
2022/11/19 00:15:36;;;;;;;8.65;6.80;;;16.10;96.20;;;;;;5048969;28;20026;-71
2022/11/19 00:18:03;;;;;;;9.00;6.78;;;16.10;96.20;;;;;;5059075;28;20047;-71
2022/11/19 00:20:30;;;;;;;11.10;6.47;;;16.10;96.30;;;;;;5056959;28;20373;-72
2022/11/19 00:22:56;;;;;;;10.07;7.40;;;16.00;96.40;;;;;;5056082;28;20029;-71
2022/11/19 00:25:25;;;;;;;8.95;6.45;;;16.00;96.40;;;;;;5054613;28;20021;-71
2022/11/19 00:27:51;;;;;;;10.82;7.32;;;16.10;96.50;;;;;;5059271;28;20029;-71
2022/11/19 00:30:18;;;;;;;8.90;6.30;;;15.90;96.60;;;;;;5051999;28;20474;-71
2022/11/19 00:32:45;;;;;;;10.05;7.28;;;16.00;96.40;;;;;;5054082;28;20035;-71
2022/11/19 00:35:10;;;;;;;8.88;6.55;;;16.10;96.10;;;;;;5051547;28;20040;-71
2022/11/19 00:37:36;;;;;;;10.98;6.43;;;16.10;96.10;;;;;;5052515;28;20025;-71
2022/11/19 00:40:02;;;;;;;10.90;6.35;;;16.10;96.30;;;;;;5052621;28;20032;-71
2022/11/19 00:42:27;;;;;;;9.55;6.75;;;16.10;96.20;;;;;;5052603;28;20029;-71
2022/11/19 00:44:53;;;;;;;9.68;7.25;;;16.00;96.20;;;;;;5052785;28;20029;-71
2022/11/19 00:47:19;;;;;;;9.50;7.15;;;16.10;96.10;;;;;;5052850;28;20025;-71
2022/11/19 00:49:44;;;;;;;13.60;6.78;;;16.10;95.90;;;;;;5052811;28;20029;-72
2022/11/19 00:52:10;;;;;;;9.35;7.18;;;16.10;95.90;;;;;;5052188;28;20057;-71
2022/11/19 00:54:36;;;;;;;12.55;7.75;;;16.10;95.90;;;;;;5052785;28;20029;-71
2022/11/19 00:57:01;;;;;;;8.05;7.07;;;16.10;96.00;;;;;;5052463;28;20025;-71
2022/11/19 00:59:27;;;;;;;14.38;6.93;;;16.00;96.30;;;;;;5051118;28;20029;-71
2022/11/19 01:01:52;;;;;;;9.00;7.63;;;16.10;96.20;;;;;;5052805;28;20013;-71
2022/11/19 01:04:18;;;;;;;8.68;7.20;;;16.10;96.20;;;;;;5052308;28;20511;-71
2022/11/19 01:06:44;;;;;;;13.98;7.72;;;16.00;96.30;;;;;;5052314;28;20474;-71
2022/11/19 01:09:10;;;;;;;10.18;7.55;;;16.10;96.10;;;;;;5053991;28;20024;-71
2022/11/19 01:11:36;;;;;;;13.40;7.57;;;16.10;96.00;;;;;;5056451;28;20040;-71
2022/11/19 01:14:04;;;;;;;10.95;6.97;;;16.10;96.10;;;;;;5056562;28;20032;-71
2022/11/19 01:16:36;;;;;;;9.02;7.13;;;16.10;96.00;;;;;;5056277;28;20028;-71
2022/11/19 01:19:02;;;;;;;8.23;6.87;;;16.10;96.10;;;;;;5056218;28;20043;-71
2022/11/19 01:21:30;;;;;;;10.90;7.60;;;16.10;96.00;;;;;;5056270;28;20369;-71
2022/11/19 01:23:56;;;;;;;8.75;7.45;;;16.10;96.10;;;;;;5056342;28;20510;-71
2022/11/19 01:26:22;;;;;;;11.40;7.63;;;16.00;96.30;;;;;;5055993;28;20021;-71
2022/11/19 01:28:48;;;;;;;10.13;6.90;;;16.10;96.40;;;;;;5056076;28;20086;-71
2022/11/19 01:31:20;;;;;;;9.13;7.00;;;16.10;96.20;;;;;;5056257;28;20037;-72
2022/11/19 01:33:46;;;;;;;10.60;6.88;;;16.00;96.20;;;;;;5055935;28;20096;-72
2022/11/19 01:36:15;;;;;;;8.82;7.13;;;16.00;96.20;;;;;;5054725;28;20033;-71
2022/11/19 01:38:41;;;;;;;11.65;7.20;;;16.10;96.20;;;;;;5055701;28;20033;-71
2022/11/19 01:41:07;;;;;;;10.50;6.93;;;16.00;96.30;;;;;;5056024;28;20029;-71
2022/11/19 01:43:55;;;;;;;12.52;7.60;;;16.00;96.30;;;;;;5055796;28;20029;-71
2022/11/19 01:46:23;;;;;;;9.95;6.53;;;15.90;96.50;;;;;;5055924;28;20394;-71
2022/11/19 01:49:09;;;;;;;8.57;6.55;;;16.00;96.50;;;;;;5055537;28;20378;-71
2022/11/19 01:51:40;;;;;;;6.97;5.50;;;15.90;96.70;;;;;;5055617;28;20492;-71
2022/11/19 01:54:21;;;;;;;10.05;6.72;;;15.80;97.00;;;;;;5055611;28;20032;-71
2022/11/19 01:56:46;;;;;;;6.85;6.18;;;15.80;97.10;;;;;;5055680;28;20029;-71
2022/11/19 01:59:15;;;;;;;8.15;5.95;;;15.90;96.50;;;;;;5055499;28;20116;-71
2022/11/19 02:01:42;;;;;;;7.45;6.20;;;16.00;96.30;;;;;;5056026;28;20055;-71
2022/11/19 02:04:09;;;;;;;9.63;5.68;;;16.00;96.20;;;;;;5055684;28;20033;-71
2022/11/19 02:06:35;;;;;;;5.97;4.97;;;15.90;96.50;;;;;;5054751;28;20025;-71
2022/11/19 02:09:01;;;;;;;6.68;5.43;;;15.90;96.60;;;;;;5055379;28;20098;-71
2022/11/19 02:11:38;;;;;;;6.78;5.35;;;15.90;96.80;;;;;;5055472;28;20378;-71
2022/11/19 02:14:19;;;;;;;12.35;6.15;;;15.80;97.10;;;;;;5055336;28;20151;-71
2022/11/19 02:17:12;;;;;;;6.93;4.97;;;15.90;96.70;;;;;;5055313;28;20021;-71
2022/11/19 02:20:19;;;;;;;6.57;4.95;;;15.80;96.70;;;;;;5054720;28;20036;-71
2022/11/19 02:23:09;;;;;;;7.32;5.22;;;15.90;96.40;;;;;;5054836;28;20029;-71
2022/11/19 02:26:05;;;;;;;6.88;5.75;;;15.80;96.60;;;;;;5055106;28;20482;-71
2022/11/19 02:28:37;;;;;;;9.98;5.82;;;15.90;96.50;;;;;;5054961;28;20052;-72
2022/11/19 02:31:11;;;;;;;5.57;3.58;;;15.90;96.60;;;;;;5054989;28;20025;-71
2022/11/19 02:33:51;;;;;;;6.82;5.28;;;15.80;97.40;;;;;;5054666;28;20054;-71
2022/11/19 02:36:44;;;;;;;9.23;5.70;;;15.80;97.60;;;;;;5054696;28;20060;-71
2022/11/19 02:39:42;;;;;;;7.03;5.68;;;15.80;97.60;;;;;;5054670;28;20535;-72
2022/11/19 02:42:22;;;;;;;6.35;4.78;;;15.80;97.90;;;;;;5054939;28;20025;-71
2022/11/19 02:44:57;;;;;;;5.95;5.32;;;15.80;97.60;;;;;;5053661;28;20033;-72
2022/11/19 02:47:44;;;;;;;5.97;5.03;;;15.90;97.80;;;;;;5054733;28;20049;-71
2022/11/19 02:50:15;;;;;;;7.60;4.88;;;15.90;97.70;;;;;;5054498;28;20021;-71
2022/11/19 02:52:43;;;;;;;7.50;6.05;;;16.00;97.30;;;;;;5054561;28;20532;-71
2022/11/19 02:55:16;;;;;;;7.75;5.65;;;16.00;97.40;;;;;;5054567;28;20029;-71
2022/11/19 02:57:58;;;;;;;7.13;5.75;;;16.00;97.30;;;;;;5054546;28;20032;-71
2022/11/19 03:06:13;;;;;;;9.93;6.32;;;16.10;95.90;;;;;;5054628;28;20048;-71
2022/11/19 03:08:39;;;;;;;7.85;7.07;;;16.00;96.00;;;;;;5054095;28;20465;-71
2022/11/19 03:11:23;;;;;;;7.35;6.18;;;16.00;96.10;;;;;;5054357;28;20101;-71
2022/11/19 03:17:13;;;;;;;7.35;5.78;;;15.90;96.30;;;;;;5053640;28;20048;-71
2022/11/19 03:20:01;;;;;;;7.80;6.38;;;15.80;96.50;;;;;;5054085;28;20028;-72
2022/11/19 03:22:30;;;;;;;5.40;4.30;;;15.80;96.80;;;;;;5053273;28;20060;-72
2022/11/19 03:25:11;;;;;;;9.32;7.05;;;15.80;97.10;;;;;;5052794;28;20512;-72
2022/11/19 03:27:53;;;;;;;9.05;6.28;;;15.90;96.60;;;;;;5054006;28;20110;-72
2022/11/19 03:30:19;;;;;;;7.38;5.43;;;15.80;96.60;;;;;;5052643;28;20029;-71
2022/11/19 03:32:53;;;;;;;7.75;6.93;;;15.90;96.40;;;;;;5052301;28;20029;-72
2022/11/19 03:35:33;;;;;;;8.32;6.63;;;15.80;96.40;;;;;;5053852;28;20041;-71
2022/11/19 03:38:03;;;;;;;10.27;7.20;;;15.80;96.40;;;;;;5053733;28;20095;-71
2022/11/19 03:40:30;;;;;;;9.18;7.70;;;15.80;96.30;;;;;;5053744;28;20447;-72
2022/11/19 03:42:58;;;;;;;8.32;6.75;;;15.80;96.20;;;;;;5053745;28;20021;-72
2022/11/19 03:45:30;;;;;;;9.35;6.72;;;15.80;96.30;;;;;;5053583;28;20021;-73
2022/11/19 03:47:57;;;;;;;;;;;15.80;96.20;;;;;;5053742;28;20150;-72
2022/11/19 03:50:28;;;;;;;9.10;7.40;;;15.90;96.00;;;;;;5053570;28;19904;-71
2022/11/19 03:52:56;;;;;;;8.87;6.87;;;15.90;95.80;;;;;;5053630;28;20025;-71
2022/11/19 03:55:29;;;;;;;7.82;6.97;;;15.90;95.80;;;;;;5053444;28;20363;-72
2022/11/19 03:58:01;;;;;;;9.60;6.80;;;15.80;95.90;;;;;;5053312;28;20493;-72
2022/11/19 04:00:27;;;;;;;7.53;6.72;;;15.80;96.00;;;;;;5052973;28;20028;-71
2022/11/19 04:02:52;;;;;;;7.50;6.55;;;15.70;96.10;;;;;;5053037;28;20374;-72
2022/11/19 04:05:18;;;;;;;8.10;7.00;;;15.80;96.00;;;;;;5053220;28;20482;-72
2022/11/19 04:07:43;;;;;;;9.73;6.53;;;15.70;96.20;;;;;;5053048;28;20024;-71
2022/11/19 04:10:09;;;;;;;9.95;6.78;;;15.70;96.40;;;;;;5053092;28;20029;-71
2022/11/19 04:12:34;;;;;;;9.70;6.93;;;15.70;96.30;;;;;;5051852;28;20013;-71
2022/11/19 04:15:00;;;;;;;9.27;7.07;;;15.70;96.00;;;;;;5052858;28;20040;-71
2022/11/19 04:17:25;;;;;;;8.02;7.05;;;15.70;96.00;;;;;;5052890;28;20028;-72
2022/11/19 04:19:51;;;;;;;9.30;7.40;;;15.70;95.90;;;;;;5052999;28;20067;-71
2022/11/19 04:22:17;;;;;;;8.50;7.32;;;15.70;95.90;;;;;;5052853;28;20351;-71
2022/11/19 04:24:42;;;;;;;7.95;6.57;;;15.70;95.90;;;;;;5052678;28;20036;-71
2022/11/19 04:27:08;;;;;;;9.68;7.40;;;15.70;96.00;;;;;;5052814;28;20025;-71
2022/11/19 04:29:34;;;;;;;9.25;7.25;;;15.80;95.90;;;;;;5052648;28;20055;-71
2022/11/19 04:31:59;;;;;;;11.95;7.35;;;15.70;95.80;;;;;;5052795;28;20530;-71
2022/11/19 04:34:25;;;;;;;8.10;6.63;;;15.80;95.80;;;;;;5053118;28;20033;-71
2022/11/19 04:36:50;;;;;;;10.98;7.32;;;15.70;95.90;;;;;;5052799;28;20035;-71
2022/11/19 04:39:16;;;;;;;8.75;7.18;;;15.70;95.90;;;;;;5052744;28;20043;-71
2022/11/19 04:41:41;;;;;;;11.35;6.82;;;15.80;95.90;;;;;;5052807;28;20063;-71
2022/11/19 04:44:07;;;;;;;10.05;8.40;;;15.70;95.80;;;;;;5045528;28;20026;-70
2022/11/19 04:46:33;;;;;;;9.18;6.50;;;15.70;95.70;;;;;;5036618;28;20481;-71
2022/11/19 04:48:58;;;;;;;9.85;7.18;;;15.70;95.80;;;;;;5034895;28;20061;-71
2022/11/19 04:51:24;;;;;;;7.90;7.10;;;15.70;96.10;;;;;;5036814;28;20501;-71
2022/11/19 04:53:49;;;;;;;7.97;7.03;;;15.80;95.80;;;;;;5036757;28;20079;-71
2022/11/19 04:56:15;;;;;;;7.85;7.05;;;15.70;95.80;;;;;;5037027;28;20036;-71
2022/11/19 04:58:41;;;;;;;8.32;6.78;;;15.70;95.90;;;;;;5036116;28;20117;-71
2022/11/19 05:01:07;;;;;;;9.50;7.38;;;15.70;95.90;;;;;;5037031;28;20033;-71
2022/11/19 05:03:33;;;;;;;9.23;7.70;;;15.70;95.90;;;;;;5036832;28;20041;-71
2022/11/19 05:05:58;;;;;;;11.30;7.75;;;15.70;95.90;;;;;;5036898;28;20025;-71
2022/11/19 05:08:24;;;;;;;8.13;7.30;;;15.70;95.90;;;;;;5036490;28;20048;-71
2022/11/19 05:10:50;;;;;;;8.93;7.43;;;15.60;96.00;;;;;;5036550;28;20478;-71
2022/11/19 05:13:15;;;;;;;9.90;7.70;;;15.70;95.90;;;;;;5036303;28;20114;-71
2022/11/19 05:15:41;;;;;;;8.07;7.28;;;15.70;96.00;;;;;;5036451;28;20025;-71
2022/11/19 05:18:06;;;;;;;9.02;8.13;;;15.70;96.10;;;;;;5035114;28;20037;-71
2022/11/19 05:20:32;;;;;;;8.07;7.28;;;15.60;95.90;;;;;;5036389;28;20026;-71
2022/11/19 05:22:57;;;;;;;11.32;8.27;;;15.60;96.00;;;;;;5036379;28;20029;-71
2022/11/19 05:25:23;;;;;;;9.45;8.23;;;15.60;96.00;;;;;;5036476;28;20374;-71
2022/11/19 05:27:48;;;;;;;8.50;7.63;;;15.40;96.00;;;;;;5036471;28;20052;-71
2022/11/19 05:30:15;;;;;;;11.57;8.55;;;15.40;96.20;;;;;;5034887;28;20053;-72
2022/11/19 05:32:40;;;;;;;11.25;8.18;;;15.30;96.20;;;;;;5036178;28;20029;-73
2022/11/19 05:35:07;;;;;;;9.57;8.60;;;15.40;96.20;;;;;;5036105;28;20029;-72
2022/11/19 05:37:32;;;;;;;11.70;8.07;;;15.50;96.10;;;;;;5036090;28;20024;-73
2022/11/19 05:39:58;;;;;;;12.63;8.90;;;15.60;96.10;;;;;;5035924;28;20026;-72
2022/11/19 05:42:23;;;;;;;14.00;11.88;;;15.40;96.20;;;;;;5035876;28;20060;-72
2022/11/19 05:44:49;;;;;;;19.52;13.93;;;15.20;96.40;;;;;;5035662;28;20025;-73
2022/11/19 05:47:15;;;;;;;16.80;13.98;;;15.00;96.60;;;;;;5036380;28;20067;-72
2022/11/19 05:49:41;;;;;;;14.43;12.90;;;14.90;96.80;;;;;;5035823;28;20021;-72
2022/11/19 05:52:07;;;;;;;16.08;13.70;;;14.80;96.80;;;;;;5036008;28;20497;-72
2022/11/19 05:54:32;;;;;;;16.98;14.18;;;14.70;97.00;;;;;;5034326;28;20018;-72
2022/11/19 05:56:58;;;;;;;21.85;17.15;;;14.50;96.90;;;;;;5034248;28;20502;-71
2022/11/19 05:59:23;;;;;;;21.38;17.75;;;14.40;96.90;;;;;;5035520;28;20086;-72
2022/11/19 06:01:49;;;;;;;26.08;21.67;;;14.40;96.80;;;;;;5036135;28;20077;-71
2022/11/19 06:04:14;;;;;;;25.70;21.77;;;14.40;96.70;;;;;;5035706;28;20037;-71
2022/11/19 06:06:40;;;;;;;23.70;19.50;;;14.20;96.80;;;;;;5033897;28;20033;-72
2022/11/19 06:09:06;;;;;;;25.60;19.33;;;14.40;96.70;;;;;;5034209;28;20435;-72
2022/11/19 06:11:47;;;;;;;21.75;18.25;;;14.60;96.30;;;;;;5035063;28;20112;-73
2022/11/19 06:14:23;;;;;;;22.17;17.90;;;14.50;96.20;;;;;;5035273;28;20029;-72
2022/11/19 06:16:57;;;;;;;19.80;17.52;;;14.20;96.40;;;;;;5035562;28;20398;-72
2022/11/19 06:19:23;;;;;;;20.90;17.15;;;14.20;96.40;;;;;;5035073;28;20044;-72
2022/11/19 06:21:49;;;;;;;21.38;17.23;;;14.50;96.00;;;;;;5035394;28;20028;-71
2022/11/19 06:24:15;;;;;;;19.83;17.90;;;14.40;96.00;;;;;;5034991;28;20493;-72
2022/11/19 06:26:41;;;;;;;19.10;17.10;;;14.20;96.00;;;;;;5034872;28;20025;-71
2022/11/19 06:29:08;;;;;;;18.13;16.23;;;14.40;95.90;;;;;;5035249;28;20117;-72
2022/11/19 06:31:33;;;;;;;17.00;15.27;;;14.40;95.80;;;;;;5035337;28;20026;-72
2022/11/19 06:33:59;;;;;;;15.50;13.93;;;14.20;95.80;;;;;;5035045;28;20108;-71
2022/11/19 06:36:25;;;;;;;16.17;14.48;;;13.80;96.00;;;;;;5034841;28;20036;-72
2022/11/19 06:38:51;;;;;;;14.68;13.10;;;13.80;96.20;;;;;;5034731;28;20478;-71
2022/11/19 06:41:17;;;;;;;11.63;10.52;;;13.90;96.10;;;;;;5034499;28;20033;-73
2022/11/19 06:43:42;;;;;;;11.82;10.63;;;13.90;95.80;;;;;;5034984;28;20152;-72
2022/11/19 06:46:09;;;;;;;9.82;8.82;;;13.80;95.70;;;;;;5034884;28;20064;-72
2022/11/19 06:48:35;;;;;;;8.70;7.80;;;13.70;95.80;;;;;;5034666;28;20117;-73
2022/11/19 06:51:01;;;;;;;8.93;7.97;;;13.60;95.70;;;;;;5033394;28;20474;-71
2022/11/19 06:53:27;;;;;;;9.73;8.73;;;14.10;95.70;;;;;;5034736;28;20045;-72
2022/11/19 06:55:57;;;;;;;8.82;7.93;;;14.00;95.40;;;;;;5034407;28;20458;-72
2022/11/19 06:58:22;;;;;;;9.50;8.57;;;13.90;95.50;;;;;;5034427;28;20041;-72
2022/11/19 07:00:48;;;;;;;7.90;7.10;;;13.80;95.50;;;;;;5034469;28;20036;-72
2022/11/19 07:03:14;;;;;;;7.18;6.43;;;13.70;95.70;;;;;;5034461;28;20036;-72
2022/11/19 07:05:40;;;;;;;7.15;6.53;;;13.40;95.90;;;;;;5034891;28;20056;-72
2022/11/19 07:08:06;;;;;;;7.40;6.57;;;13.30;95.80;;;;;;5034325;28;20382;-72
2022/11/19 07:10:32;;;;;;;8.70;7.90;;;13.30;95.80;;;;;;5033936;28;20144;-72
2022/11/19 07:12:58;;;;;;;8.57;6.78;;;13.20;95.80;;;;;;5033850;28;20036;-73
2022/11/19 07:15:24;;;;;;;7.72;6.97;;;12.90;96.20;;;;;;5046363;28;20017;-72
2022/11/19 07:17:50;;;;;;;7.57;6.75;;;12.80;96.10;;;;;;5049908;28;20045;-72
2022/11/19 07:20:16;;;;;;;6.15;5.55;;;13.10;95.80;;;;;;5051085;28;20493;-73
2022/11/19 07:22:42;;;;;;;7.05;6.35;;;13.20;95.40;;;;;;5053526;28;20124;-72
2022/11/19 07:25:11;;;;;;;8.55;7.40;;;13.50;95.20;;;;;;5051733;28;20449;-73
2022/11/19 07:27:41;;;;;;;7.43;6.72;;;13.30;94.90;;;;;;5049552;28;20039;-73
2022/11/19 07:30:08;;;;;;;7.18;6.38;;;13.00;95.00;;;;;;5053075;28;20056;-73
2022/11/19 07:32:33;;;;;;;5.90;5.32;;;13.10;95.30;;;;;;5053712;28;20023;-73
2022/11/19 07:34:59;;;;;;;5.72;5.18;;;13.50;94.80;;;;;;5051801;28;20394;-72
2022/11/19 07:37:24;;;;;;;4.50;4.10;;;13.60;94.50;;;;;;5046451;28;20028;-72
2022/11/19 07:39:50;;;;;;;4.03;3.70;;;13.40;94.50;;;;;;5050405;28;20032;-72
2022/11/19 07:45:00;;;;;;;5.38;3.40;;;12.80;94.70;;;;;;5049711;28;20047;-72
2022/11/19 07:47:25;;;;;;;4.40;4.00;;;12.80;95.10;;;;;;5049573;28;20104;-72
2022/11/19 07:49:51;;;;;;;5.00;4.30;;;12.70;94.80;;;;;;5051296;28;20029;-72
2022/11/19 07:52:16;;;;;;;4.80;4.40;;;12.80;94.90;;;;;;5060369;28;20020;-72
2022/11/19 07:54:42;;;;;;;5.43;4.93;;;12.80;94.70;;;;;;5033796;28;20025;-71
2022/11/19 07:57:07;;;;;;;7.45;4.85;;;12.70;94.80;;;;;;5035486;28;20419;-71
2022/11/19 07:59:33;;;;;;;6.10;5.13;;;12.80;94.80;;;;;;5043949;28;20021;-72
2022/11/19 08:01:59;;;;;;;6.57;5.97;;;12.90;94.70;;;;;;5038787;28;20100;-72
2022/11/19 08:04:27;;;;;;;7.07;6.47;;;13.20;94.30;;;;;;5047602;28;20443;-71
2022/11/19 08:06:53;;;;;;;7.18;6.45;;;13.00;94.40;;;;;;5050436;28;20036;-71
2022/11/19 08:09:18;;;;;;;7.13;6.45;;;12.90;94.40;;;;;;5055227;28;20025;-72
2022/11/19 08:11:44;;;;;;;6.88;6.25;;;13.30;94.10;;;;;;5046025;28;20383;-72
2022/11/19 08:14:13;;;;;;;8.68;7.13;;;13.40;93.90;;;;;;5045159;28;20017;-72
2022/11/19 08:19:23;;;;;;;7.20;6.50;;;13.20;94.10;;;;;;5033385;28;20043;-72
2022/11/19 08:21:49;;;;;;;5.70;5.20;;;13.40;93.60;;;;;;5032536;28;20030;-70
2022/11/19 08:24:17;;;;;;;4.97;4.57;;;13.20;93.90;;;;;;5032644;28;20105;-70
2022/11/19 08:26:43;;;;;;;5.75;5.25;;;13.20;93.70;;;;;;5032583;28;20116;-70
2022/11/19 08:29:09;;;;;;;5.80;5.30;;;13.30;93.80;;;;;;5032677;28;20060;-70
2022/11/19 08:31:35;;;;;;;5.28;4.80;;;13.20;93.50;;;;;;5032816;28;20109;-70
2022/11/19 08:34:01;;;;;;;4.97;4.20;;;13.10;93.70;;;;;;5032632;28;20437;-71
2022/11/19 08:36:27;;;;;;;3.95;3.63;;;12.70;94.10;;;;;;5032703;28;20025;-70
2022/11/19 08:38:56;;;;;;;4.30;3.70;;;12.60;93.90;;;;;;5033126;28;20116;-70
2022/11/19 08:44:06;;;;;;;4.07;3.67;;;12.60;93.50;;;;;;5040224;28;20501;-70
2022/11/19 08:46:31;;;;;;;5.63;5.13;;;12.50;93.80;;;;;;5049484;28;20466;-70
2022/11/19 08:48:57;;;;;;;7.50;6.80;;;12.60;93.70;;;;;;5051117;28;20033;-70
2022/11/19 08:51:23;;;;;;;7.75;7.00;;;12.60;93.50;;;;;;5051273;28;20025;-71
2022/11/19 08:53:53;;;;;;;9.80;8.80;;;11.60;93.60;;;;;;5052559;28;20025;-74
2022/11/19 08:56:19;;;;;;;9.07;8.20;;;10.00;95.60;;;;;;5053067;28;20029;-71
2022/11/19 08:58:45;;;;;;;9.52;7.90;;;9.70;97.80;;;;;;5052352;28;20489;-71
2022/11/19 09:01:12;;;;;;;8.20;7.40;;;9.10;97.80;;;;;;5052668;28;20028;-71
2022/11/19 09:03:39;;;;;;;8.43;7.50;;;9.70;99.60;;;;;;5050719;28;20131;-71
2022/11/19 09:06:05;;;;;;;8.88;7.97;;;10.20;98.90;;;;;;5051124;28;20377;-71
2022/11/19 09:08:31;;;;;;;9.15;7.72;;;10.60;97.60;;;;;;5052404;28;20052;-71
2022/11/19 09:10:56;;;;;;;10.90;9.07;;;11.10;97.20;;;;;;5052450;28;20470;-70
2022/11/19 09:13:22;;;;;;;11.30;10.10;;;11.30;96.60;;;;;;5052345;28;20355;-73
2022/11/19 09:15:49;;;;;;;11.18;9.77;;;11.70;96.60;;;;;;5052524;28;20092;-71
2022/11/19 09:18:14;;;;;;;9.57;8.68;;;11.90;95.60;;;;;;5052364;28;20025;-73
2022/11/19 09:20:40;;;;;;;7.72;5.78;;;11.90;95.80;;;;;;5052210;28;20512;-73
2022/11/19 09:23:05;;;;;;;9.52;8.43;;;12.60;96.10;;;;;;5052282;28;20025;-71
2022/11/19 09:25:32;;;;;;;12.13;10.15;;;13.10;94.90;;;;;;5052467;28;20114;-73
2022/11/19 09:27:58;;;;;;;11.05;10.05;;;13.10;93.70;;;;;;5050872;28;20443;-72
2022/11/19 09:30:23;;;;;;;12.00;10.63;;;13.10;93.50;;;;;;5054285;28;20061;-72
2022/11/19 09:32:49;;;;;;;14.93;13.32;;;12.50;94.20;;;;;;5056239;28;20029;-73
2022/11/19 09:35:15;;;;;;;15.40;13.80;;;12.40;94.30;;;;;;5055765;28;20371;-73
2022/11/19 09:37:40;;;;;;;22.42;14.32;;;12.20;94.70;;;;;;5056021;28;20124;-73
2022/11/19 09:40:08;;;;;;;23.00;18.27;;;12.60;94.70;;;;;;5055786;28;20082;-73
2022/11/19 09:43:00;;;;;;;19.75;17.35;;;12.40;94.20;;;;;;5055754;28;20048;-72
2022/11/19 09:45:52;;;;;;;20.70;17.02;;;12.60;94.20;;;;;;5055906;28;20505;-72
2022/11/19 09:48:26;;;;;;;22.27;18.25;;;12.50;94.30;;;;;;5055716;28;20021;-72
2022/11/19 09:50:59;;;;;;;31.45;17.27;;;12.40;94.40;;;;;;5055714;28;20025;-72
2022/11/19 09:53:30;;;;;;;23.52;18.27;;;12.60;94.20;;;;;;5051625;28;20029;-72
2022/11/19 09:55:58;;;;;;;21.17;18.30;;;12.70;93.70;;;;;;5052037;28;20043;-72
2022/11/19 09:58:31;;;;;;;26.42;19.10;;;12.60;94.30;;;;;;5043419;28;20029;-72
2022/11/19 10:00:58;;;;;;;22.63;19.52;;;12.60;94.00;;;;;;5045483;28;20080;-71
2022/11/19 10:03:25;;;;;;;23.83;19.65;;;12.50;94.00;;;;;;5051273;28;20096;-71
2022/11/19 10:06:15;;;;;;;25.73;19.67;;;12.80;93.90;;;;;;5049895;28;20025;-71
2022/11/19 10:08:46;;;;;;;24.63;17.67;;;13.20;94.00;;;;;;5051619;28;20107;-71
2022/11/19 10:11:55;;;;;;;22.57;17.27;;;13.10;93.40;;;;;;5036679;28;20025;-71
2022/11/19 10:14:33;;;;;;;19.25;17.25;;;12.70;93.80;;;;;;5052243;28;20033;-71
2022/11/19 10:17:17;;;;;;;19.63;17.27;;;12.50;93.00;;;;;;5051103;28;20078;-72
2022/11/19 10:19:55;;;;;;;20.48;17.63;;;12.50;93.80;;;;;;5052858;28;20080;-71
2022/11/19 10:22:28;;;;;;;23.98;17.13;;;12.60;93.80;;;;;;5047150;28;20033;-71
2022/11/19 10:25:09;;;;;;;21.73;16.63;;;12.70;94.10;;;;;;5051278;28;20025;-71
2022/11/19 10:27:54;;;;;;;20.83;16.60;;;12.40;93.60;;;;;;5049950;28;20079;-71
2022/11/19 10:30:23;;;;;;;19.90;15.63;;;12.50;93.80;;;;;;5051179;28;20021;-72
2022/11/19 10:33:10;;;;;;;18.90;15.52;;;12.80;93.40;;;;;;5046438;28;20033;-72
2022/11/19 10:35:45;;;;;;;18.40;13.82;;;12.80;93.30;;;;;;5043732;28;20481;-72
2022/11/19 10:38:19;;;;;;;18.13;15.20;;;12.60;93.40;;;;;;5050519;28;20029;-71
2022/11/19 10:40:52;;;;;;;21.70;15.38;;;12.80;93.20;;;;;;5051169;28;20021;-71
2022/11/19 10:43:36;;;;;;;22.17;19.05;;;13.10;93.10;;;;;;5049991;28;20403;-71
2022/11/19 10:46:04;;;;;;;21.88;19.08;;;13.10;92.80;;;;;;5050653;28;20016;-71
2022/11/19 10:48:53;;;;;;;19.58;17.55;;;12.70;92.80;;;;;;5051121;28;20032;-71
2022/11/19 10:51:29;;;;;;;18.45;16.23;;;12.20;92.70;;;;;;5051148;28;20171;-71
2022/11/19 10:53:56;;;;;;;20.05;17.70;;;12.00;93.00;;;;;;5050422;28;20035;-71
2022/11/19 10:56:34;;;;;;;22.80;19.55;;;11.90;93.50;;;;;;5050795;28;20044;-70
2022/11/19 10:59:19;;;;;;;27.60;24.60;;;12.00;93.30;;;;;;5047056;28;20037;-71
2022/11/19 11:01:47;;;;;;;29.08;25.48;;;12.00;93.00;;;;;;5045602;28;20033;-71
2022/11/19 11:04:23;;;;;;;28.77;23.63;;;11.90;92.90;;;;;;5050260;28;20060;-71
2022/11/19 11:06:58;;;;;;;26.05;23.20;;;11.80;92.90;;;;;;5045106;28;20044;-71
2022/11/19 11:09:36;;;;;;;28.02;24.95;;;12.00;92.80;;;;;;5048900;28;20028;-72
2022/11/19 11:15:06;;;;;;;26.00;22.50;;;12.10;92.60;;;;;;5049028;28;20405;-71
2022/11/19 11:17:34;;;;;;;25.02;22.33;;;11.80;92.70;;;;;;5044393;28;20100;-71
2022/11/19 11:20:04;;;;;;;27.92;22.42;;;11.60;93.20;;;;;;5041742;28;20024;-72
2022/11/19 11:22:30;;;;;;;29.85;26.00;;;11.70;93.00;;;;;;5051832;28;20043;-72
2022/11/19 11:24:57;;;;;;;33.80;28.23;;;11.80;92.80;;;;;;5047286;28;20025;-71
2022/11/19 11:27:26;;;;;;;31.80;26.02;;;11.60;92.90;;;;;;5045735;28;20018;-72
2022/11/19 11:30:11;;;;;;;34.20;29.92;;;11.70;93.00;;;;;;5038377;28;20116;-71
2022/11/19 11:32:39;;;;;;;34.65;30.65;;;11.50;92.80;;;;;;5048761;28;21382;-71
2022/11/19 11:35:05;;;;;;;33.53;28.58;;;11.30;93.40;;;;;;5048944;28;20045;-71
2022/11/19 11:37:32;;;;;;;36.65;31.17;;;11.00;93.80;;;;;;5036895;28;20025;-71
2022/11/19 11:39:58;;;;;;;37.92;30.73;;;11.00;93.80;;;;;;5045850;28;20032;-71
2022/11/19 11:42:27;;;;;;;34.63;30.63;;;11.10;93.80;;;;;;5046595;28;20031;-71
2022/11/19 11:44:56;;;;;;;36.90;30.10;;;11.50;93.20;;;;;;5045945;28;20021;-72
2022/11/19 11:47:28;;;;;;;38.35;31.30;;;11.50;92.80;;;;;;5045591;28;20095;-70
2022/11/19 11:50:13;;;;;;;37.60;31.03;;;12.10;92.30;;;;;;5045827;28;20043;-73
2022/11/19 11:52:43;;;;;;;35.95;30.90;;;12.00;92.50;;;;;;5045935;28;20287;-72
2022/11/19 11:55:37;;;;;;;39.75;32.80;;;12.00;92.40;;;;;;5040306;28;20595;-72
2022/11/19 11:58:05;;;;;;;37.42;29.30;;;12.00;92.40;;;;;;5042120;28;20087;-72
2022/11/19 12:00:38;;;;;;;38.17;31.73;;;12.00;92.40;;;;;;5045132;28;20112;-72
2022/11/19 12:03:10;;;;;;;41.80;34.05;;;12.10;92.40;;;;;;5042345;28;20422;-71
2022/11/19 12:06:13;;;;;;;45.25;36.65;;;12.10;92.50;;;;;;5041336;28;20044;-72
2022/11/19 12:09:00;;;;;;;50.28;40.70;;;11.90;92.50;;;;;;5048810;28;20098;-72
2022/11/19 12:11:54;;;;;;;52.15;41.33;;;11.80;92.60;;;;;;5045246;28;20109;-72
2022/11/19 12:14:40;;;;;;;52.25;40.63;;;11.70;92.40;;;;;;5047506;28;20027;-73
2022/11/19 12:17:17;;;;;;;50.90;38.78;;;11.30;92.80;;;;;;5044483;28;20390;-71
2022/11/19 12:20:01;;;;;;;45.53;38.33;;;11.50;92.90;;;;;;5046411;28;20478;-74
2022/11/19 12:23:06;;;;;;;49.47;38.40;;;11.60;92.80;;;;;;5048029;28;20106;-73
2022/11/19 12:25:37;;;;;;;46.22;35.60;;;11.60;92.60;;;;;;5047362;28;20060;-74
2022/11/19 12:28:27;;;;;;;49.95;37.85;;;11.60;92.40;;;;;;5041463;28;20048;-74
2022/11/19 12:31:30;;;;;;;45.33;35.13;;;11.30;92.70;;;;;;5044906;28;20044;-74
2022/11/19 12:34:11;;;;;;;46.60;35.28;;;11.20;93.00;;;;;;5045285;28;20484;-74
2022/11/19 12:37:04;;;;;;;46.13;35.25;;;11.30;93.00;;;;;;5045985;28;20033;-73
2022/11/19 12:39:39;;;;;;;44.30;33.15;;;11.20;93.20;;;;;;5041050;28;20099;-74
2022/11/19 12:42:30;;;;;;;49.92;36.08;;;11.40;93.20;;;;;;5047256;28;20025;-74
2022/11/19 12:45:09;;;;;;;56.90;40.05;;;11.50;92.80;;;;;;5046304;28;20033;-74
2022/11/19 12:47:43;;;;;;;52.90;38.72;;;11.50;92.90;;;;;;5043537;28;20040;-74
2022/11/19 12:50:25;;;;;;;57.65;39.35;;;11.60;92.80;;;;;;5042052;28;20530;-74
2022/11/19 12:53:09;;;;;;;59.03;40.03;;;11.70;92.50;;;;;;5045927;28;20028;-73
2022/11/19 12:56:04;;;;;;;58.13;39.83;;;11.80;92.30;;;;;;5043731;28;20029;-73
2022/11/19 12:58:38;;;;;;;55.58;38.53;;;12.20;92.00;;;;;;5044693;28;20128;-73
2022/11/19 13:01:13;;;;;;;60.90;42.08;;;12.30;92.20;;;;;;5042325;28;20389;-73
2022/11/19 13:03:56;;;;;;;59.38;40.20;;;11.90;92.00;;;;;;5045396;28;20095;-73
2022/11/19 13:06:47;;;;;;;62.95;40.63;;;11.70;92.10;;;;;;5046544;28;20488;-73
2022/11/19 13:09:27;;;;;;;57.10;41.33;;;10.70;92.80;;;;;;5050508;28;20093;-73
2022/11/19 13:12:00;;;;;;;64.63;43.67;;;9.50;95.30;;;;;;5049756;28;20025;-73
2022/11/19 13:14:32;;;;;;;62.13;39.20;;;9.00;96.30;;;;;;5048282;28;20061;-74
2022/11/19 13:17:00;;;;;;;59.83;41.42;;;9.20;98.80;;;;;;5050124;28;20075;-72